createdAt,value
2022-12-19T00:00:06.172Z,42.77
2022-12-19T00:02:35.441Z,42.64
2022-12-19T00:05:02.393Z,42.81
2022-12-19T00:07:29.180Z,42.85
2022-12-19T00:09:55.987Z,42.55
2022-12-19T00:12:22.788Z,42.20
2022-12-19T00:14:49.711Z,41.93
2022-12-19T00:17:16.577Z,42.01
2022-12-19T00:19:43.427Z,42.29
2022-12-19T00:22:11.365Z,42.08
2022-12-19T00:24:38.325Z,42.15
2022-12-19T00:27:05.125Z,41.98
2022-12-19T00:29:31.973Z,42.14
2022-12-19T00:31:58.800Z,42.08
2022-12-19T00:34:25.625Z,42.06
2022-12-19T00:36:52.423Z,41.93
2022-12-19T00:39:19.303Z,42.06
2022-12-19T00:41:46.243Z,42.16
2022-12-19T00:44:16.514Z,42.22
2022-12-19T00:46:45.179Z,42.09
2022-12-19T00:49:20.049Z,41.94
2022-12-19T00:51:47.092Z,41.91
2022-12-19T00:54:13.999Z,42.39
2022-12-19T00:56:42.167Z,41.92
2022-12-19T00:59:10.826Z,42.40
2022-12-19T01:01:39.318Z,42.16
2022-12-19T01:06:53.948Z,42.20
2022-12-19T01:09:21.917Z,42.43
2022-12-19T01:11:51.951Z,42.16
2022-12-19T01:14:23.013Z,42.49
2022-12-19T01:16:50.907Z,42.47
2022-12-19T01:19:17.824Z,42.30
2022-12-19T01:21:44.645Z,42.24
2022-12-19T01:24:11.882Z,42.66
2022-12-19T01:26:38.713Z,42.51
2022-12-19T01:29:05.804Z,42.56
2022-12-19T01:31:33.633Z,42.72
2022-12-19T01:34:01.300Z,42.80
2022-12-19T01:36:28.378Z,42.62
2022-12-19T01:38:56.237Z,42.67
2022-12-19T01:41:23.117Z,42.88
2022-12-19T01:43:53.002Z,43.15
2022-12-19T01:46:22.708Z,43.02
2022-12-19T01:48:53.609Z,42.68
2022-12-19T01:51:22.561Z,42.98
2022-12-19T01:53:52.442Z,43.09
2022-12-19T01:56:21.246Z,42.92
2022-12-19T01:58:50.925Z,43.14
2022-12-19T02:01:25.171Z,43.32
2022-12-19T02:03:53.026Z,43.35
2022-12-19T02:06:20.030Z,43.28
2022-12-19T02:08:47.845Z,43.76
2022-12-19T02:11:14.911Z,43.87
2022-12-19T02:13:42.034Z,43.81
2022-12-19T02:16:14.769Z,44.07
2022-12-19T02:18:48.506Z,44.15
2022-12-19T02:21:15.634Z,44.46
2022-12-19T02:23:55.111Z,44.88
2022-12-19T02:26:23.318Z,44.51
2022-12-19T02:28:50.551Z,44.50
2022-12-19T02:31:18.035Z,44.92
2022-12-19T02:33:53.431Z,44.66
2022-12-19T02:36:26.233Z,44.85
2022-12-19T02:38:56.234Z,45.04
2022-12-19T02:41:26.128Z,44.75
2022-12-19T02:43:58.642Z,45.20
2022-12-19T02:46:26.927Z,45.48
2022-12-19T02:48:53.966Z,45.54
2022-12-19T02:51:20.780Z,45.54
2022-12-19T02:53:47.627Z,45.68
2022-12-19T02:56:14.784Z,45.88
2022-12-19T02:58:46.186Z,45.58
2022-12-19T03:01:15.026Z,45.74
2022-12-19T03:03:44.877Z,46.21
2022-12-19T03:06:16.511Z,45.89
2022-12-19T03:08:46.451Z,45.89
2022-12-19T03:11:15.080Z,46.04
2022-12-19T03:13:46.415Z,46.23
2022-12-19T03:16:14.007Z,46.27
2022-12-19T03:18:41.312Z,46.34
2022-12-19T03:21:11.257Z,46.37
2022-12-19T03:23:38.511Z,46.27
2022-12-19T03:26:08.355Z,46.33
2022-12-19T03:28:38.300Z,46.47
2022-12-19T03:31:06.016Z,46.45
2022-12-19T03:33:34.065Z,46.76
2022-12-19T03:36:04.509Z,46.64
2022-12-19T03:38:32.392Z,46.51
2022-12-19T03:41:00.232Z,46.24
2022-12-19T03:43:29.076Z,46.70
2022-12-19T03:45:57.747Z,46.58
2022-12-19T03:48:27.681Z,46.68
2022-12-19T03:51:01.476Z,46.43
2022-12-19T03:53:31.538Z,46.93
2022-12-19T03:56:02.144Z,46.76
2022-12-19T03:58:32.811Z,46.48
2022-12-19T04:01:01.163Z,46.71
2022-12-19T04:03:29.314Z,46.57
2022-12-19T04:05:57.172Z,46.50
2022-12-19T04:08:24.674Z,46.65
2022-12-19T04:10:54.587Z,46.85
2022-12-19T04:13:27.576Z,46.67
2022-12-19T04:16:00.549Z,46.90
2022-12-19T04:18:27.571Z,46.82
2022-12-19T04:20:57.422Z,46.84
2022-12-19T04:23:29.337Z,46.97
2022-12-19T04:25:59.146Z,46.60
2022-12-19T04:28:30.866Z,46.63
2022-12-19T04:30:58.313Z,46.71
2022-12-19T04:33:25.175Z,46.77
2022-12-19T04:35:52.001Z,47.07
2022-12-19T04:38:18.860Z,47.04
2022-12-19T04:40:45.678Z,46.92
2022-12-19T04:43:12.516Z,47.04
2022-12-19T04:45:41.037Z,47.27
2022-12-19T04:48:08.879Z,47.11
2022-12-19T04:50:36.103Z,47.21
2022-12-19T04:53:02.964Z,47.32
2022-12-19T04:55:29.852Z,47.02
2022-12-19T04:57:57.335Z,47.44
2022-12-19T05:00:24.176Z,47.56
2022-12-19T05:02:51.248Z,47.56
2022-12-19T05:05:19.214Z,47.73
2022-12-19T05:07:47.201Z,47.62
2022-12-19T05:10:14.228Z,47.99
2022-12-19T05:12:41.176Z,48.12
2022-12-19T05:15:08.404Z,48.07
2022-12-19T05:17:35.295Z,48.04
2022-12-19T05:20:02.132Z,48.14
2022-12-19T05:22:28.952Z,48.59
2022-12-19T05:24:55.816Z,48.33
2022-12-19T05:27:22.805Z,48.73
2022-12-19T05:29:49.615Z,48.53
2022-12-19T05:32:16.452Z,48.44
2022-12-19T05:34:43.276Z,48.74
2022-12-19T05:37:10.063Z,48.57
2022-12-19T05:39:36.860Z,48.83
2022-12-19T05:42:04.555Z,48.51
2022-12-19T05:44:33.223Z,49.06
2022-12-19T05:47:00.012Z,49.10
2022-12-19T05:49:26.882Z,49.16
2022-12-19T05:51:54.189Z,49.03
2022-12-19T05:54:21.095Z,48.97
2022-12-19T05:56:47.887Z,49.00
2022-12-19T05:59:14.871Z,49.02
2022-12-19T06:01:42.652Z,49.08
2022-12-19T06:04:09.551Z,48.89
2022-12-19T06:06:36.479Z,49.06
2022-12-19T06:09:03.690Z,48.66
2022-12-19T06:11:30.504Z,48.65
2022-12-19T06:13:57.424Z,48.91
2022-12-19T06:16:24.332Z,49.07
2022-12-19T06:18:51.315Z,49.09
2022-12-19T06:21:19.653Z,48.87
2022-12-19T06:23:46.787Z,49.20
2022-12-19T06:26:19.066Z,48.80
2022-12-19T06:28:47.098Z,49.16
2022-12-19T06:31:14.627Z,49.28
2022-12-19T06:33:41.651Z,49.46
2022-12-19T06:36:11.794Z,49.55
2022-12-19T06:38:38.634Z,49.13
2022-12-19T06:41:08.771Z,49.57
2022-12-19T06:43:35.591Z,49.44
2022-12-19T06:46:02.442Z,49.52
2022-12-19T06:48:29.307Z,49.44
2022-12-19T06:50:56.286Z,49.68
2022-12-19T06:53:23.087Z,49.58
2022-12-19T06:55:52.012Z,49.85
2022-12-19T06:58:24.000Z,50.05
2022-12-19T07:00:51.527Z,49.69
2022-12-19T07:03:21.882Z,49.88
2022-12-19T07:05:48.983Z,50.00
2022-12-19T07:08:15.822Z,49.98
2022-12-19T07:10:42.763Z,49.92
2022-12-19T07:13:09.609Z,50.26
2022-12-19T07:15:36.619Z,49.92
2022-12-19T07:18:04.585Z,50.39
2022-12-19T07:20:33.573Z,50.45
2022-12-19T07:23:00.452Z,50.29
2022-12-19T07:25:27.274Z,50.07
2022-12-19T07:27:54.255Z,50.43
2022-12-19T07:30:21.051Z,50.47
2022-12-19T07:32:47.845Z,50.85
2022-12-19T07:35:15.039Z,50.86
2022-12-19T07:37:41.855Z,50.83
2022-12-19T07:40:09.188Z,50.85
2022-12-19T07:42:36.004Z,51.14
2022-12-19T07:45:02.838Z,51.07
2022-12-19T07:47:29.657Z,51.31
2022-12-19T07:49:56.478Z,51.09
2022-12-19T07:52:23.575Z,51.16
2022-12-19T07:54:50.389Z,51.49
2022-12-19T07:57:18.467Z,51.62
2022-12-19T07:59:45.321Z,51.57
2022-12-19T08:02:12.411Z,51.23
2022-12-19T08:04:39.511Z,51.58
2022-12-19T08:07:06.348Z,51.32
2022-12-19T08:09:33.166Z,51.42
2022-12-19T08:11:59.987Z,51.46
2022-12-19T08:14:26.894Z,51.40
2022-12-19T08:17:19.881Z,51.75
2022-12-19T08:19:40.632Z,51.63
2022-12-19T08:22:07.882Z,51.66
2022-12-19T08:24:34.748Z,51.68
2022-12-19T08:27:01.562Z,51.56
2022-12-19T08:29:28.527Z,51.35
2022-12-19T08:31:55.363Z,51.61
2022-12-19T08:34:22.262Z,52.25
2022-12-19T08:36:49.178Z,52.80
2022-12-19T08:39:16.488Z,52.99
2022-12-19T08:41:43.368Z,53.49
2022-12-19T08:44:11.599Z,53.97
2022-12-19T08:46:38.552Z,54.16
2022-12-19T08:49:05.458Z,54.10
2022-12-19T08:51:32.298Z,54.54
2022-12-19T08:53:59.917Z,54.43
2022-12-19T08:56:27.838Z,54.19
2022-12-19T08:58:56.252Z,53.94
2022-12-19T09:01:24.303Z,54.08
2022-12-19T09:04:34.011Z,54.11
2022-12-19T09:06:38.297Z,54.04
2022-12-19T09:09:05.621Z,53.73
2022-12-19T09:11:32.600Z,53.46
2022-12-19T09:13:59.452Z,53.48
2022-12-19T09:16:27.422Z,53.67
2022-12-19T09:18:55.689Z,53.05
2022-12-19T09:21:23.753Z,53.06
2022-12-19T09:23:52.101Z,52.95
2022-12-19T09:26:19.183Z,53.01
2022-12-19T09:28:46.620Z,52.67
2022-12-19T09:31:16.005Z,52.63
2022-12-19T09:33:43.966Z,52.50
2022-12-19T09:36:13.168Z,52.64
2022-12-19T09:38:40.234Z,52.47
2022-12-19T09:41:10.338Z,52.12
2022-12-19T09:43:41.542Z,52.01
2022-12-19T09:46:16.709Z,52.35
2022-12-19T09:48:47.991Z,52.12
2022-12-19T09:51:28.601Z,52.15
2022-12-19T09:53:57.416Z,51.89
2022-12-19T09:56:27.460Z,51.61
2022-12-19T09:58:57.398Z,51.46
2022-12-19T10:01:27.867Z,51.63
2022-12-19T10:03:59.644Z,51.29
2022-12-19T10:06:51.366Z,51.26
2022-12-19T10:10:12.915Z,51.14
2022-12-19T10:12:42.161Z,51.49
2022-12-19T10:14:52.707Z,50.91
2022-12-19T10:17:24.530Z,51.21
2022-12-19T10:19:55.162Z,51.25
2022-12-19T10:22:25.218Z,50.95
2022-12-19T10:25:08.626Z,51.11
2022-12-19T10:27:37.376Z,51.16
2022-12-19T10:30:15.064Z,51.11
2022-12-19T10:32:43.674Z,51.15
2022-12-19T10:35:13.790Z,50.99
2022-12-19T10:37:49.576Z,50.76
2022-12-19T10:40:27.643Z,51.21
2022-12-19T10:42:58.748Z,50.98
2022-12-19T10:45:34.925Z,50.96
2022-12-19T10:48:01.873Z,51.14
2022-12-19T10:50:30.003Z,51.33
2022-12-19T10:53:00.073Z,51.57
2022-12-19T10:55:36.314Z,51.58
2022-12-19T10:58:11.939Z,51.89
2022-12-19T11:00:45.968Z,51.88
2022-12-19T11:03:16.770Z,51.89
2022-12-19T11:05:57.469Z,52.11
2022-12-19T11:08:27.260Z,51.91
2022-12-19T11:13:10.296Z,52.09
2022-12-19T11:17:40.842Z,51.89
2022-12-19T11:24:17.373Z,51.94
2022-12-19T11:29:30.548Z,51.98
2022-12-19T11:29:31.093Z,51.59
2022-12-19T11:30:09.322Z,51.70
2022-12-19T11:30:48.851Z,51.64
2022-12-19T11:33:25.795Z,51.63
2022-12-19T11:35:54.051Z,51.43
2022-12-19T11:38:29.546Z,51.74
2022-12-19T11:40:58.139Z,51.37
2022-12-19T11:43:45.352Z,51.63
2022-12-19T11:46:21.384Z,51.42
2022-12-19T11:48:52.266Z,51.33
2022-12-19T11:51:22.383Z,51.36
2022-12-19T11:53:52.482Z,51.60
2022-12-19T11:56:22.062Z,51.59
2022-12-19T11:58:50.954Z,51.45
2022-12-19T12:01:21.193Z,51.26
2022-12-19T12:04:00.057Z,51.31
2022-12-19T12:06:32.813Z,51.65
2022-12-19T12:11:46.784Z,51.58
2022-12-19T12:20:43.715Z,51.62
2022-12-19T12:27:58.969Z,51.79
2022-12-19T12:31:13.627Z,52.00
2022-12-19T12:31:14.425Z,51.65
2022-12-19T12:31:27.452Z,51.82
2022-12-19T12:31:50.266Z,51.88
2022-12-19T12:31:51.389Z,51.99
2022-12-19T12:35:46.744Z,52.07
2022-12-19T12:40:12.303Z,52.19
2022-12-19T12:42:45.112Z,52.44
2022-12-19T12:45:15.234Z,52.42
2022-12-19T12:47:42.372Z,52.55
2022-12-19T12:50:15.363Z,52.48
2022-12-19T12:52:44.755Z,52.14
2022-12-19T12:55:16.408Z,52.65
2022-12-19T12:57:43.542Z,52.69
2022-12-19T13:00:13.600Z,52.20
2022-12-19T13:02:41.746Z,52.42
2022-12-19T13:05:12.366Z,52.48
2022-12-19T13:07:42.600Z,52.32
2022-12-19T13:10:12.645Z,52.52
2022-12-19T13:12:56.438Z,52.65
2022-12-19T13:15:26.725Z,52.48
2022-12-19T13:17:54.082Z,52.99
2022-12-19T13:20:24.100Z,52.61
2022-12-19T13:22:56.167Z,52.53
2022-12-19T13:25:26.253Z,52.91
2022-12-19T13:27:56.304Z,53.05
2022-12-19T13:30:23.534Z,52.95
2022-12-19T13:32:51.023Z,53.09
2022-12-19T13:36:49.985Z,53.05
2022-12-19T13:39:50.680Z,53.19
2022-12-19T13:40:57.131Z,53.22
2022-12-19T13:43:31.038Z,53.04
2022-12-19T13:45:58.386Z,53.69
2022-12-19T13:48:28.781Z,53.57
2022-12-19T13:50:56.986Z,53.40
2022-12-19T13:53:25.593Z,53.59
2022-12-19T13:55:56.180Z,53.74
2022-12-19T13:58:28.930Z,53.59
2022-12-19T14:00:59.059Z,53.49
2022-12-19T14:03:29.405Z,53.46
2022-12-19T14:06:18.419Z,53.72
2022-12-19T14:08:47.636Z,53.53
2022-12-19T14:12:26.873Z,53.75
2022-12-19T14:14:31.042Z,53.93
2022-12-19T14:17:06.259Z,53.68
2022-12-19T14:19:37.756Z,54.07
2022-12-19T14:22:15.963Z,53.71
2022-12-19T14:24:51.201Z,53.83
2022-12-19T14:28:21.102Z,53.78
2022-12-19T14:30:29.901Z,54.03
2022-12-19T14:33:45.635Z,53.96
2022-12-19T14:36:06.507Z,54.01
2022-12-19T14:39:19.673Z,54.05
2022-12-19T14:41:38.109Z,53.87
2022-12-19T14:52:25.290Z,54.06
2022-12-19T14:54:05.640Z,54.33
2022-12-19T14:54:14.694Z,54.05
2022-12-19T14:54:28.468Z,54.20
2022-12-19T14:56:03.759Z,54.37
2022-12-19T14:58:54.020Z,54.34
2022-12-19T15:01:10.066Z,54.37
2022-12-19T15:03:43.428Z,54.37
2022-12-19T15:06:19.879Z,54.57
2022-12-19T15:11:06.610Z,54.58
2022-12-19T15:12:09.760Z,54.25
2022-12-19T15:14:58.976Z,54.75
2022-12-19T15:17:26.732Z,54.58
2022-12-19T15:19:53.807Z,54.54
2022-12-19T15:22:20.718Z,54.86
2022-12-19T15:24:48.068Z,54.36
2022-12-19T15:27:17.027Z,54.51
2022-12-19T15:29:44.786Z,54.85
2022-12-19T15:32:15.329Z,54.93
2022-12-19T15:34:50.528Z,55.16
2022-12-19T15:37:18.258Z,54.93
2022-12-19T15:39:45.655Z,54.87
2022-12-19T15:42:17.934Z,54.97
2022-12-19T15:44:46.189Z,54.79
2022-12-19T15:47:16.810Z,54.93
2022-12-19T15:49:43.879Z,55.15
2022-12-19T15:52:13.883Z,55.04
2022-12-19T15:54:49.674Z,55.25
2022-12-19T15:57:20.947Z,55.15
2022-12-19T15:59:48.085Z,55.17
2022-12-19T16:02:18.517Z,55.00
2022-12-19T16:04:48.372Z,55.42
2022-12-19T16:07:17.051Z,55.51
2022-12-19T16:09:44.016Z,55.54
2022-12-19T16:12:14.001Z,55.03
2022-12-19T16:14:41.181Z,55.09
2022-12-19T16:17:12.219Z,55.14
2022-12-19T16:19:39.160Z,55.49
2022-12-19T16:22:15.643Z,55.50
2022-12-19T16:24:42.528Z,55.68
2022-12-19T16:27:11.205Z,55.25
2022-12-19T16:29:41.672Z,55.51
2022-12-19T16:32:10.829Z,55.43
2022-12-19T16:34:37.828Z,55.35
2022-12-19T16:37:04.863Z,55.75
2022-12-19T16:39:31.997Z,55.47
2022-12-19T16:41:58.981Z,55.29
2022-12-19T16:44:25.946Z,55.65
2022-12-19T16:46:52.961Z,55.46
2022-12-19T16:49:23.038Z,55.59
2022-12-19T16:51:50.128Z,55.77
2022-12-19T16:54:17.768Z,55.66
2022-12-19T16:56:48.295Z,55.51
2022-12-19T16:59:18.560Z,55.93
2022-12-19T17:01:45.830Z,55.63
2022-12-19T17:04:14.054Z,55.65
2022-12-19T17:06:41.478Z,55.92
2022-12-19T17:09:08.528Z,56.15
2022-12-19T17:11:35.509Z,56.04
2022-12-19T17:14:06.395Z,56.00
2022-12-19T17:16:33.501Z,56.16
2022-12-19T17:19:00.663Z,56.06
2022-12-19T17:21:27.620Z,56.02
2022-12-19T17:23:54.501Z,55.89
2022-12-19T17:26:21.503Z,55.87
2022-12-19T17:28:48.793Z,56.22
2022-12-19T17:31:18.867Z,56.07
2022-12-19T17:33:47.027Z,56.00
2022-12-19T17:36:18.434Z,56.05
2022-12-19T17:38:50.108Z,56.38
2022-12-19T17:41:17.238Z,56.15
2022-12-19T17:43:44.386Z,56.15
2022-12-19T17:46:16.743Z,56.31
2022-12-19T17:48:45.513Z,56.17
2022-12-19T17:51:13.747Z,56.04
2022-12-19T17:53:40.921Z,56.22
2022-12-19T17:56:12.878Z,56.06
2022-12-19T17:58:39.820Z,56.28
2022-12-19T18:01:16.960Z,56.64
2022-12-19T18:03:43.995Z,56.54
2022-12-19T18:06:12.397Z,56.22
2022-12-19T18:08:39.760Z,56.46
2022-12-19T18:11:08.045Z,56.42
2022-12-19T18:13:35.569Z,56.41
2022-12-19T18:16:03.773Z,56.41
2022-12-19T18:18:32.058Z,56.33
2022-12-19T18:21:00.257Z,56.23
2022-12-19T18:23:27.585Z,56.34
2022-12-19T18:26:00.853Z,56.55
2022-12-19T18:28:28.460Z,56.62
2022-12-19T18:30:59.265Z,56.39
2022-12-19T18:33:26.748Z,56.75
2022-12-19T18:35:53.731Z,56.35
2022-12-19T18:38:21.840Z,56.37
2022-12-19T18:40:49.187Z,56.33
2022-12-19T18:43:17.129Z,56.59
2022-12-19T18:45:45.272Z,56.76
2022-12-19T18:48:15.299Z,56.56
2022-12-19T18:50:42.262Z,56.93
2022-12-19T18:53:11.808Z,56.92
2022-12-19T18:55:38.869Z,56.42
2022-12-19T18:58:05.789Z,56.54
2022-12-19T19:00:33.165Z,57.06
2022-12-19T19:03:03.008Z,56.92
2022-12-19T19:05:31.264Z,56.65
2022-12-19T19:07:58.476Z,56.73
2022-12-19T19:10:27.743Z,56.85
2022-12-19T19:12:55.247Z,56.71
2022-12-19T19:15:23.238Z,56.70
2022-12-19T19:17:51.720Z,57.01
2022-12-19T19:20:19.267Z,56.94
2022-12-19T19:22:46.477Z,57.07
2022-12-19T19:25:14.531Z,57.07
2022-12-19T19:27:41.748Z,57.12
2022-12-19T19:30:10.715Z,57.14
2022-12-19T19:32:38.794Z,57.19
2022-12-19T19:35:07.195Z,57.12
2022-12-19T19:37:34.354Z,57.09
2022-12-19T19:40:01.243Z,57.19
2022-12-19T19:42:28.159Z,57.17
2022-12-19T19:44:55.254Z,57.45
2022-12-19T19:47:25.169Z,57.27
2022-12-19T19:49:52.031Z,57.26
2022-12-19T19:52:18.919Z,57.41
2022-12-19T19:54:46.128Z,57.20
2022-12-19T19:57:13.055Z,57.43
2022-12-19T19:59:39.941Z,57.37
2022-12-19T20:02:08.783Z,57.21
2022-12-19T20:04:36.519Z,57.42
2022-12-19T20:07:04.148Z,57.36
2022-12-19T20:09:31.363Z,57.50
2022-12-19T20:11:58.837Z,57.50
2022-12-19T20:14:26.896Z,57.42
2022-12-19T20:16:53.876Z,57.83
2022-12-19T20:19:20.925Z,57.65
2022-12-19T20:21:47.771Z,57.76
2022-12-19T20:24:14.629Z,57.66
2022-12-19T20:26:41.480Z,57.66
2022-12-19T20:29:08.787Z,57.75
2022-12-19T20:31:35.880Z,57.88
2022-12-19T20:34:03.010Z,57.91
2022-12-19T20:36:30.177Z,57.63
2022-12-19T20:38:57.012Z,58.11
2022-12-19T20:41:24.353Z,57.69
2022-12-19T20:43:53.280Z,57.67
2022-12-19T20:46:21.277Z,58.17
2022-12-19T20:48:48.453Z,57.70
2022-12-19T20:51:16.320Z,57.97
2022-12-19T20:53:43.419Z,57.89
2022-12-19T20:56:12.831Z,57.95
2022-12-19T20:58:39.794Z,58.10
2022-12-19T21:01:08.157Z,57.94
2022-12-19T21:03:35.667Z,58.17
2022-12-19T21:06:03.697Z,58.14
2022-12-19T21:08:30.950Z,58.13
2022-12-19T21:10:57.861Z,57.98
2022-12-19T21:13:24.747Z,58.34
2022-12-19T21:15:52.618Z,58.35
2022-12-19T21:18:19.731Z,58.28
2022-12-19T21:20:46.613Z,58.12
2022-12-19T21:23:13.538Z,58.12
2022-12-19T21:25:40.547Z,58.64
2022-12-19T21:28:07.446Z,58.45
2022-12-19T21:30:34.410Z,58.39
2022-12-19T21:33:01.486Z,58.36
2022-12-19T21:35:28.354Z,58.51
2022-12-19T21:37:55.162Z,58.60
2022-12-19T21:40:22.450Z,58.57
2022-12-19T21:42:49.323Z,58.63
2022-12-19T21:45:16.279Z,58.78
2022-12-19T21:47:43.387Z,58.78
2022-12-19T21:50:11.326Z,58.80
2022-12-19T21:52:38.459Z,58.67
2022-12-19T21:55:06.559Z,58.95
2022-12-19T21:57:33.453Z,58.78
2022-12-19T22:00:00.342Z,58.68
2022-12-19T22:02:27.336Z,58.95
2022-12-19T22:04:54.246Z,59.06
2022-12-19T22:07:21.047Z,58.94
2022-12-19T22:09:47.824Z,58.65
2022-12-19T22:12:14.669Z,59.02
2022-12-19T22:14:41.523Z,59.18
2022-12-19T22:17:08.345Z,58.90
2022-12-19T22:19:35.349Z,58.93
2022-12-19T22:22:02.473Z,59.09
2022-12-19T22:24:29.376Z,59.01
2022-12-19T22:26:56.440Z,59.06
2022-12-19T22:29:23.364Z,58.79
2022-12-19T22:31:50.403Z,59.16
2022-12-19T22:34:18.834Z,59.10
2022-12-19T22:36:46.137Z,59.04
2022-12-19T22:39:14.528Z,59.56
2022-12-19T22:41:41.633Z,59.45
2022-12-19T22:44:08.995Z,59.15
2022-12-19T22:46:36.824Z,59.50
2022-12-19T22:49:05.332Z,58.87
2022-12-19T22:51:35.186Z,58.91
2022-12-19T22:54:02.490Z,59.21
2022-12-19T22:56:30.791Z,59.18
2022-12-19T22:59:00.378Z,59.08
2022-12-19T23:01:29.083Z,59.19
2022-12-19T23:03:58.522Z,59.24
2022-12-19T23:06:26.823Z,59.67
2022-12-19T23:08:54.072Z,59.36
2022-12-19T23:11:22.868Z,59.45
2022-12-19T23:13:50.526Z,59.47
2022-12-19T23:16:17.650Z,59.67
2022-12-19T23:18:44.543Z,59.53
2022-12-19T23:21:13.917Z,59.46
2022-12-19T23:23:42.769Z,59.61
2022-12-19T23:26:15.587Z,59.46
2022-12-19T23:28:46.409Z,59.45
2022-12-19T23:31:14.120Z,59.75
2022-12-19T23:33:41.159Z,59.70
2022-12-19T23:36:08.478Z,59.33
2022-12-19T23:38:35.318Z,59.49
2022-12-19T23:41:03.334Z,59.52
2022-12-19T23:43:31.727Z,59.42
2022-12-19T23:45:58.716Z,59.55
2022-12-19T23:48:26.186Z,59.29
2022-12-19T23:50:56.252Z,59.37
2022-12-19T23:53:23.104Z,59.37
2022-12-19T23:55:50.356Z,59.66
2022-12-19T23:58:24.027Z,59.65
